sensor_id;sensor_type;location;lat;lon;timestamp;temperature;humidity
7155;DHT22;3619;53.784;10.440;2023-09-19T00:01:09;16.60;99.90
7155;DHT22;3619;53.784;10.440;2023-09-19T00:03:37;16.60;99.90
7155;DHT22;3619;53.784;10.440;2023-09-19T00:06:06;16.60;99.90
7155;DHT22;3619;53.784;10.440;2023-09-19T00:08:33;16.60;99.90
7155;DHT22;3619;53.784;10.440;2023-09-19T00:11:08;16.50;99.90
7155;DHT22;3619;53.784;10.440;2023-09-19T00:13:37;16.50;99.90
7155;DHT22;3619;53.784;10.440;2023-09-19T00:16:08;16.50;99.90
7155;DHT22;3619;53.784;10.440;2023-09-19T00:18:44;16.50;99.90
7155;DHT22;3619;53.784;10.440;2023-09-19T00:21:12;16.50;99.90
7155;DHT22;3619;53.784;10.440;2023-09-19T00:23:45;16.50;99.90
7155;DHT22;3619;53.784;10.440;2023-09-19T00:26:13;16.50;99.90
7155;DHT22;3619;53.784;10.440;2023-09-19T00:28:41;16.50;99.90
7155;DHT22;3619;53.784;10.440;2023-09-19T00:31:08;16.40;99.90
7155;DHT22;3619;53.784;10.440;2023-09-19T00:33:35;16.40;99.90
7155;DHT22;3619;53.784;10.440;2023-09-19T00:36:03;16.40;99.90
7155;DHT22;3619;53.784;10.440;2023-09-19T00:38:33;16.40;99.90
7155;DHT22;3619;53.784;10.440;2023-09-19T00:40:59;16.40;99.90
7155;DHT22;3619;53.784;10.440;2023-09-19T00:43:27;16.40;99.90
7155;DHT22;3619;53.784;10.440;2023-09-19T00:46:00;16.40;99.90
7155;DHT22;3619;53.784;10.440;2023-09-19T00:48:28;16.40;99.90
7155;DHT22;3619;53.784;10.440;2023-09-19T00:50:57;16.40;99.90
7155;DHT22;3619;53.784;10.440;2023-09-19T00:53:27;16.40;99.90
7155;DHT22;3619;53.784;10.440;2023-09-19T00:55:58;16.40;99.90
7155;DHT22;3619;53.784;10.440;2023-09-19T00:58:24;16.40;99.90
7155;DHT22;3619;53.784;10.440;2023-09-19T01:00:59;16.40;99.90
7155;DHT22;3619;53.784;10.440;2023-09-19T01:03:25;16.40;99.90
7155;DHT22;3619;53.784;10.440;2023-09-19T01:05:52;16.30;99.90
7155;DHT22;3619;53.784;10.440;2023-09-19T01:08:25;16.30;99.90
7155;DHT22;3619;53.784;10.440;2023-09-19T01:11:15;16.30;99.90
7155;DHT22;3619;53.784;10.440;2023-09-19T01:13:51;16.30;99.90
7155;DHT22;3619;53.784;10.440;2023-09-19T01:16:40;16.30;99.90
7155;DHT22;3619;53.784;10.440;2023-09-19T01:22:18;16.30;99.90
7155;DHT22;3619;53.784;10.440;2023-09-19T01:25:30;16.30;99.90
7155;DHT22;3619;53.784;10.440;2023-09-19T01:28:30;16.30;99.90
7155;DHT22;3619;53.784;10.440;2023-09-19T01:31:06;16.30;99.90
7155;DHT22;3619;53.784;10.440;2023-09-19T01:34:00;16.30;99.90
7155;DHT22;3619;53.784;10.440;2023-09-19T01:36:31;16.40;99.90
7155;DHT22;3619;53.784;10.440;2023-09-19T01:39:02;16.30;99.90
7155;DHT22;3619;53.784;10.440;2023-09-19T01:41:41;16.40;99.90
7155;DHT22;3619;53.784;10.440;2023-09-19T01:44:17;16.30;99.90
7155;DHT22;3619;53.784;10.440;2023-09-19T01:46:47;16.30;99.90
7155;DHT22;3619;53.784;10.440;2023-09-19T01:49:22;16.30;99.90
7155;DHT22;3619;53.784;10.440;2023-09-19T01:52:00;16.30;99.90
7155;DHT22;3619;53.784;10.440;2023-09-19T01:54:33;16.30;99.90
7155;DHT22;3619;53.784;10.440;2023-09-19T01:57:20;16.30;99.90
7155;DHT22;3619;53.784;10.440;2023-09-19T01:59:54;16.30;99.90
7155;DHT22;3619;53.784;10.440;2023-09-19T02:02:25;16.30;99.90
7155;DHT22;3619;53.784;10.440;2023-09-19T02:04:55;16.20;99.90
7155;DHT22;3619;53.784;10.440;2023-09-19T02:07:22;16.20;99.90
7155;DHT22;3619;53.784;10.440;2023-09-19T02:09:49;16.20;99.90
7155;DHT22;3619;53.784;10.440;2023-09-19T02:12:15;16.20;99.90
7155;DHT22;3619;53.784;10.440;2023-09-19T02:14:42;16.10;99.90
7155;DHT22;3619;53.784;10.440;2023-09-19T02:17:10;16.10;99.90
7155;DHT22;3619;53.784;10.440;2023-09-19T02:19:40;16.10;99.90
7155;DHT22;3619;53.784;10.440;2023-09-19T02:22:19;16.10;99.90
7155;DHT22;3619;53.784;10.440;2023-09-19T02:24:45;16.00;99.90
7155;DHT22;3619;53.784;10.440;2023-09-19T02:27:14;16.00;99.90
7155;DHT22;3619;53.784;10.440;2023-09-19T02:29:48;16.00;99.90
7155;DHT22;3619;53.784;10.440;2023-09-19T02:32:15;16.00;99.90
7155;DHT22;3619;53.784;10.440;2023-09-19T02:34:51;16.00;99.90
7155;DHT22;3619;53.784;10.440;2023-09-19T02:37:26;16.00;99.90
7155;DHT22;3619;53.784;10.440;2023-09-19T02:40:13;16.00;99.90
7155;DHT22;3619;53.784;10.440;2023-09-19T02:42:45;15.90;99.90
7155;DHT22;3619;53.784;10.440;2023-09-19T02:45:15;15.90;99.90
7155;DHT22;3619;53.784;10.440;2023-09-19T02:47:43;15.90;99.90
7155;DHT22;3619;53.784;10.440;2023-09-19T02:50:16;15.90;99.90
7155;DHT22;3619;53.784;10.440;2023-09-19T02:52:46;15.80;99.90
7155;DHT22;3619;53.784;10.440;2023-09-19T02:55:15;15.80;99.90
7155;DHT22;3619;53.784;10.440;2023-09-19T02:57:45;15.80;99.90
7155;DHT22;3619;53.784;10.440;2023-09-19T03:00:13;15.80;99.90
7155;DHT22;3619;53.784;10.440;2023-09-19T03:02:41;15.80;99.90
7155;DHT22;3619;53.784;10.440;2023-09-19T03:05:08;15.70;99.90
7155;DHT22;3619;53.784;10.440;2023-09-19T03:07:39;15.70;99.90
7155;DHT22;3619;53.784;10.440;2023-09-19T03:10:09;15.80;99.90
7155;DHT22;3619;53.784;10.440;2023-09-19T03:12:36;15.80;99.90
7155;DHT22;3619;53.784;10.440;2023-09-19T03:15:04;15.70;99.90
7155;DHT22;3619;53.784;10.440;2023-09-19T03:17:32;15.80;99.90
7155;DHT22;3619;53.784;10.440;2023-09-19T03:19:59;15.80;99.90
7155;DHT22;3619;53.784;10.440;2023-09-19T03:22:27;15.80;99.90
7155;DHT22;3619;53.784;10.440;2023-09-19T03:24:56;15.80;99.90
7155;DHT22;3619;53.784;10.440;2023-09-19T03:27:22;15.80;99.90
7155;DHT22;3619;53.784;10.440;2023-09-19T03:29:53;15.80;99.90
7155;DHT22;3619;53.784;10.440;2023-09-19T03:32:26;15.80;99.90
7155;DHT22;3619;53.784;10.440;2023-09-19T03:35:05;15.70;99.90
7155;DHT22;3619;53.784;10.440;2023-09-19T03:37:32;15.80;99.90
7155;DHT22;3619;53.784;10.440;2023-09-19T03:40:01;15.80;99.90
7155;DHT22;3619;53.784;10.440;2023-09-19T03:42:34;15.80;99.90
7155;DHT22;3619;53.784;10.440;2023-09-19T03:45:01;15.80;99.90
7155;DHT22;3619;53.784;10.440;2023-09-19T03:47:29;15.80;99.90
7155;DHT22;3619;53.784;10.440;2023-09-19T03:50:00;15.80;99.90
7155;DHT22;3619;53.784;10.440;2023-09-19T03:52:27;15.80;99.90
7155;DHT22;3619;53.784;10.440;2023-09-19T03:54:54;15.80;99.90
7155;DHT22;3619;53.784;10.440;2023-09-19T03:57:22;15.70;99.90
7155;DHT22;3619;53.784;10.440;2023-09-19T03:59:49;15.70;99.90
7155;DHT22;3619;53.784;10.440;2023-09-19T04:02:20;15.70;99.90
7155;DHT22;3619;53.784;10.440;2023-09-19T04:04:49;15.70;99.90
7155;DHT22;3619;53.784;10.440;2023-09-19T04:07:16;15.70;99.90
7155;DHT22;3619;53.784;10.440;2023-09-19T04:09:44;15.70;99.90
7155;DHT22;3619;53.784;10.440;2023-09-19T04:12:11;15.60;99.90
7155;DHT22;3619;53.784;10.440;2023-09-19T04:14:39;15.70;99.90
7155;DHT22;3619;53.784;10.440;2023-09-19T04:17:06;15.60;99.90
7155;DHT22;3619;53.784;10.440;2023-09-19T04:19:34;15.60;99.90
7155;DHT22;3619;53.784;10.440;2023-09-19T04:22:01;15.60;99.90
7155;DHT22;3619;53.784;10.440;2023-09-19T04:24:31;15.50;99.90
7155;DHT22;3619;53.784;10.440;2023-09-19T04:26:59;15.50;99.90
7155;DHT22;3619;53.784;10.440;2023-09-19T04:29:28;15.50;99.90
7155;DHT22;3619;53.784;10.440;2023-09-19T04:31:57;15.50;99.90
7155;DHT22;3619;53.784;10.440;2023-09-19T04:34:25;15.50;99.90
7155;DHT22;3619;53.784;10.440;2023-09-19T04:36:54;15.50;99.90
7155;DHT22;3619;53.784;10.440;2023-09-19T04:39:23;15.50;99.90
7155;DHT22;3619;53.784;10.440;2023-09-19T04:41:52;15.50;99.90
7155;DHT22;3619;53.784;10.440;2023-09-19T04:44:19;15.50;99.90
7155;DHT22;3619;53.784;10.440;2023-09-19T04:46:46;15.50;99.90
7155;DHT22;3619;53.784;10.440;2023-09-19T04:49:15;15.40;99.90
7155;DHT22;3619;53.784;10.440;2023-09-19T04:51:41;15.40;99.90
7155;DHT22;3619;53.784;10.440;2023-09-19T04:54:08;15.30;99.90
7155;DHT22;3619;53.784;10.440;2023-09-19T04:56:48;15.30;99.90
7155;DHT22;3619;53.784;10.440;2023-09-19T04:59:28;15.20;99.90
7155;DHT22;3619;53.784;10.440;2023-09-19T05:01:58;15.20;99.90
7155;DHT22;3619;53.784;10.440;2023-09-19T05:04:26;15.10;99.90
7155;DHT22;3619;53.784;10.440;2023-09-19T05:06:54;15.00;99.90
7155;DHT22;3619;53.784;10.440;2023-09-19T05:09:21;15.00;99.90
7155;DHT22;3619;53.784;10.440;2023-09-19T05:11:48;14.90;99.90
7155;DHT22;3619;53.784;10.440;2023-09-19T05:14:16;14.90;99.90
7155;DHT22;3619;53.784;10.440;2023-09-19T05:16:43;14.80;99.90
7155;DHT22;3619;53.784;10.440;2023-09-19T05:19:10;14.70;99.90
7155;DHT22;3619;53.784;10.440;2023-09-19T05:21:39;14.70;99.90
7155;DHT22;3619;53.784;10.440;2023-09-19T05:24:07;14.70;99.90
7155;DHT22;3619;53.784;10.440;2023-09-19T05:26:33;14.70;99.90
7155;DHT22;3619;53.784;10.440;2023-09-19T05:29:00;14.60;99.90
7155;DHT22;3619;53.784;10.440;2023-09-19T05:31:29;14.60;99.90
7155;DHT22;3619;53.784;10.440;2023-09-19T05:33:56;14.60;99.90
7155;DHT22;3619;53.784;10.440;2023-09-19T05:36:23;14.60;99.90
7155;DHT22;3619;53.784;10.440;2023-09-19T05:38:51;14.60;99.90
7155;DHT22;3619;53.784;10.440;2023-09-19T05:41:19;14.60;99.90
7155;DHT22;3619;53.784;10.440;2023-09-19T05:43:49;14.60;99.90
7155;DHT22;3619;53.784;10.440;2023-09-19T05:46:16;14.60;99.90
7155;DHT22;3619;53.784;10.440;2023-09-19T05:48:44;14.60;99.90
7155;DHT22;3619;53.784;10.440;2023-09-19T05:51:13;14.60;99.90
7155;DHT22;3619;53.784;10.440;2023-09-19T05:53:40;14.60;99.90
7155;DHT22;3619;53.784;10.440;2023-09-19T05:56:10;14.60;99.90
7155;DHT22;3619;53.784;10.440;2023-09-19T05:58:39;14.60;99.90
7155;DHT22;3619;53.784;10.440;2023-09-19T06:01:08;14.60;99.90
7155;DHT22;3619;53.784;10.440;2023-09-19T06:03:35;14.60;99.90
7155;DHT22;3619;53.784;10.440;2023-09-19T06:06:02;14.70;99.90
7155;DHT22;3619;53.784;10.440;2023-09-19T06:08:31;14.70;99.90
7155;DHT22;3619;53.784;10.440;2023-09-19T06:10:59;14.80;99.90
7155;DHT22;3619;53.784;10.440;2023-09-19T06:13:29;14.80;99.90
7155;DHT22;3619;53.784;10.440;2023-09-19T06:15:56;14.90;99.90
7155;DHT22;3619;53.784;10.440;2023-09-19T06:18:24;14.90;99.90
7155;DHT22;3619;53.784;10.440;2023-09-19T06:20:52;15.00;99.90
7155;DHT22;3619;53.784;10.440;2023-09-19T06:23:20;15.10;99.90
7155;DHT22;3619;53.784;10.440;2023-09-19T06:25:48;15.20;99.90
7155;DHT22;3619;53.784;10.440;2023-09-19T06:28:15;15.30;99.90
7155;DHT22;3619;53.784;10.440;2023-09-19T06:30:46;15.40;99.90
7155;DHT22;3619;53.784;10.440;2023-09-19T06:33:13;15.40;99.90
7155;DHT22;3619;53.784;10.440;2023-09-19T06:35:41;15.50;99.90
7155;DHT22;3619;53.784;10.440;2023-09-19T06:38:10;15.50;99.90
7155;DHT22;3619;53.784;10.440;2023-09-19T06:40:39;15.50;99.90
7155;DHT22;3619;53.784;10.440;2023-09-19T06:43:10;15.50;99.90
7155;DHT22;3619;53.784;10.440;2023-09-19T06:45:37;15.40;99.90
7155;DHT22;3619;53.784;10.440;2023-09-19T06:48:05;15.40;99.90
7155;DHT22;3619;53.784;10.440;2023-09-19T06:50:32;15.40;99.90
7155;DHT22;3619;53.784;10.440;2023-09-19T06:53:01;15.30;99.90
7155;DHT22;3619;53.784;10.440;2023-09-19T06:55:28;15.30;99.90
7155;DHT22;3619;53.784;10.440;2023-09-19T06:57:57;15.30;99.90
7155;DHT22;3619;53.784;10.440;2023-09-19T07:00:24;15.40;99.90
7155;DHT22;3619;53.784;10.440;2023-09-19T07:02:57;15.40;99.90
7155;DHT22;3619;53.784;10.440;2023-09-19T07:05:27;15.50;99.90
7155;DHT22;3619;53.784;10.440;2023-09-19T07:07:54;15.50;99.90
7155;DHT22;3619;53.784;10.440;2023-09-19T07:10:22;15.60;99.90
7155;DHT22;3619;53.784;10.440;2023-09-19T07:12:55;15.60;99.90
7155;DHT22;3619;53.784;10.440;2023-09-19T07:15:23;15.60;99.90
7155;DHT22;3619;53.784;10.440;2023-09-19T07:17:50;15.60;99.90
7155;DHT22;3619;53.784;10.440;2023-09-19T07:20:19;15.50;99.90
7155;DHT22;3619;53.784;10.440;2023-09-19T07:22:48;15.60;99.90
7155;DHT22;3619;53.784;10.440;2023-09-19T07:25:16;15.60;99.90
7155;DHT22;3619;53.784;10.440;2023-09-19T07:27:43;15.60;99.90
7155;DHT22;3619;53.784;10.440;2023-09-19T07:30:11;15.60;99.90
7155;DHT22;3619;53.784;10.440;2023-09-19T07:32:38;15.60;99.90
7155;DHT22;3619;53.784;10.440;2023-09-19T07:35:06;15.60;99.90
7155;DHT22;3619;53.784;10.440;2023-09-19T07:37:34;15.60;99.90
7155;DHT22;3619;53.784;10.440;2023-09-19T07:40:03;15.60;99.90
7155;DHT22;3619;53.784;10.440;2023-09-19T07:42:32;15.70;99.90
7155;DHT22;3619;53.784;10.440;2023-09-19T07:45:00;15.70;99.90
7155;DHT22;3619;53.784;10.440;2023-09-19T07:47:27;15.80;99.90
7155;DHT22;3619;53.784;10.440;2023-09-19T07:49:55;15.80;99.90
7155;DHT22;3619;53.784;10.440;2023-09-19T07:52:22;15.70;99.90
7155;DHT22;3619;53.784;10.440;2023-09-19T07:54:50;15.70;99.90
7155;DHT22;3619;53.784;10.440;2023-09-19T07:57:18;15.80;99.90
7155;DHT22;3619;53.784;10.440;2023-09-19T07:59:45;15.80;99.90
7155;DHT22;3619;53.784;10.440;2023-09-19T08:02:12;15.90;99.90
7155;DHT22;3619;53.784;10.440;2023-09-19T08:04:41;15.80;99.90
7155;DHT22;3619;53.784;10.440;2023-09-19T08:07:08;15.80;99.90
7155;DHT22;3619;53.784;10.440;2023-09-19T08:09:36;15.80;99.90
7155;DHT22;3619;53.784;10.440;2023-09-19T08:12:04;15.80;99.90
7155;DHT22;3619;53.784;10.440;2023-09-19T08:14:34;15.80;99.90
7155;DHT22;3619;53.784;10.440;2023-09-19T08:17:02;15.70;99.90
7155;DHT22;3619;53.784;10.440;2023-09-19T08:19:30;15.70;99.90
7155;DHT22;3619;53.784;10.440;2023-09-19T08:21:57;15.70;99.90
7155;DHT22;3619;53.784;10.440;2023-09-19T08:24:25;15.80;99.90
7155;DHT22;3619;53.784;10.440;2023-09-19T08:26:54;15.80;99.90
7155;DHT22;3619;53.784;10.440;2023-09-19T08:29:21;15.80;99.90
7155;DHT22;3619;53.784;10.440;2023-09-19T08:31:54;15.80;99.90
7155;DHT22;3619;53.784;10.440;2023-09-19T08:34:22;15.90;99.90
7155;DHT22;3619;53.784;10.440;2023-09-19T08:36:50;15.90;99.90
7155;DHT22;3619;53.784;10.440;2023-09-19T08:39:18;15.80;99.90
7155;DHT22;3619;53.784;10.440;2023-09-19T08:41:45;15.90;99.90
7155;DHT22;3619;53.784;10.440;2023-09-19T08:44:12;15.80;99.90
7155;DHT22;3619;53.784;10.440;2023-09-19T08:46:41;15.80;99.90
7155;DHT22;3619;53.784;10.440;2023-09-19T08:49:15;15.80;99.90
7155;DHT22;3619;53.784;10.440;2023-09-19T08:51:46;15.80;99.90
7155;DHT22;3619;53.784;10.440;2023-09-19T08:54:22;15.80;99.90
7155;DHT22;3619;53.784;10.440;2023-09-19T08:56:53;15.80;99.90
7155;DHT22;3619;53.784;10.440;2023-09-19T08:59:23;15.70;99.90
7155;DHT22;3619;53.784;10.440;2023-09-19T09:01:55;15.60;99.90
7155;DHT22;3619;53.784;10.440;2023-09-19T09:04:24;15.60;99.90
7155;DHT22;3619;53.784;10.440;2023-09-19T09:06:53;15.70;99.90
7155;DHT22;3619;53.784;10.440;2023-09-19T09:09:21;15.70;99.90
7155;DHT22;3619;53.784;10.440;2023-09-19T09:11:48;15.70;99.90
7155;DHT22;3619;53.784;10.440;2023-09-19T09:14:19;15.60;99.90
7155;DHT22;3619;53.784;10.440;2023-09-19T09:16:46;15.70;99.90
7155;DHT22;3619;53.784;10.440;2023-09-19T09:19:26;15.70;99.90
7155;DHT22;3619;53.784;10.440;2023-09-19T09:21:54;15.70;99.90
7155;DHT22;3619;53.784;10.440;2023-09-19T09:24:28;15.80;99.90
7155;DHT22;3619;53.784;10.440;2023-09-19T09:26:56;15.90;99.90
7155;DHT22;3619;53.784;10.440;2023-09-19T09:29:41;15.90;99.90
7155;DHT22;3619;53.784;10.440;2023-09-19T09:32:19;15.90;99.90
7155;DHT22;3619;53.784;10.440;2023-09-19T09:34:49;16.00;99.90
7155;DHT22;3619;53.784;10.440;2023-09-19T09:37:17;16.00;99.90
7155;DHT22;3619;53.784;10.440;2023-09-19T09:39:55;16.00;99.90
7155;DHT22;3619;53.784;10.440;2023-09-19T09:42:32;16.00;99.90
7155;DHT22;3619;53.784;10.440;2023-09-19T09:45:15;16.00;99.90
7155;DHT22;3619;53.784;10.440;2023-09-19T09:47:44;16.10;99.90
7155;DHT22;3619;53.784;10.440;2023-09-19T09:50:29;16.20;99.90
7155;DHT22;3619;53.784;10.440;2023-09-19T09:53:19;16.30;99.90
7155;DHT22;3619;53.784;10.440;2023-09-19T09:56:01;16.30;99.90
7155;DHT22;3619;53.784;10.440;2023-09-19T09:58:28;16.40;99.90
7155;DHT22;3619;53.784;10.440;2023-09-19T10:00:57;16.50;99.90
7155;DHT22;3619;53.784;10.440;2023-09-19T10:03:33;16.60;99.90
7155;DHT22;3619;53.784;10.440;2023-09-19T10:06:08;16.70;99.90
7155;DHT22;3619;53.784;10.440;2023-09-19T10:09:04;16.80;99.90
7155;DHT22;3619;53.784;10.440;2023-09-19T10:11:44;16.90;99.90
7155;DHT22;3619;53.784;10.440;2023-09-19T10:14:11;17.00;99.90
7155;DHT22;3619;53.784;10.440;2023-09-19T10:16:41;17.10;99.90
7155;DHT22;3619;53.784;10.440;2023-09-19T10:19:16;17.20;99.90
7155;DHT22;3619;53.784;10.440;2023-09-19T10:21:50;17.20;99.90
7155;DHT22;3619;53.784;10.440;2023-09-19T10:24:18;17.20;99.90
7155;DHT22;3619;53.784;10.440;2023-09-19T10:26:45;17.30;99.90
7155;DHT22;3619;53.784;10.440;2023-09-19T10:29:17;17.30;99.90
7155;DHT22;3619;53.784;10.440;2023-09-19T10:31:44;17.30;99.90
7155;DHT22;3619;53.784;10.440;2023-09-19T10:34:17;17.30;99.90
7155;DHT22;3619;53.784;10.440;2023-09-19T10:36:46;17.30;99.90
7155;DHT22;3619;53.784;10.440;2023-09-19T10:39:16;17.30;99.90
7155;DHT22;3619;53.784;10.440;2023-09-19T10:41:50;17.30;99.90
7155;DHT22;3619;53.784;10.440;2023-09-19T10:44:22;17.30;99.90
7155;DHT22;3619;53.784;10.440;2023-09-19T10:46:51;17.30;99.90
7155;DHT22;3619;53.784;10.440;2023-09-19T10:49:19;17.40;99.90
7155;DHT22;3619;53.784;10.440;2023-09-19T10:51:47;17.40;99.90
7155;DHT22;3619;53.784;10.440;2023-09-19T10:54:19;17.50;99.90
7155;DHT22;3619;53.784;10.440;2023-09-19T10:56:49;17.50;99.90
7155;DHT22;3619;53.784;10.440;2023-09-19T10:59:18;17.60;99.90
7155;DHT22;3619;53.784;10.440;2023-09-19T11:01:47;17.50;99.90
7155;DHT22;3619;53.784;10.440;2023-09-19T11:04:24;17.60;99.90
7155;DHT22;3619;53.784;10.440;2023-09-19T11:07:04;17.70;99.90
7155;DHT22;3619;53.784;10.440;2023-09-19T11:09:48;17.80;99.90
7155;DHT22;3619;53.784;10.440;2023-09-19T11:18:52;18.00;99.90
7155;DHT22;3619;53.784;10.440;2023-09-19T11:21:53;17.90;99.90
7155;DHT22;3619;53.784;10.440;2023-09-19T11:24:33;17.90;99.90
7155;DHT22;3619;53.784;10.440;2023-09-19T11:27:13;18.10;99.90
7155;DHT22;3619;53.784;10.440;2023-09-19T11:29:42;18.00;99.90
7155;DHT22;3619;53.784;10.440;2023-09-19T11:32:09;18.00;99.90
7155;DHT22;3619;53.784;10.440;2023-09-19T11:34:44;18.00;99.90
7155;DHT22;3619;53.784;10.440;2023-09-19T11:40:45;18.00;99.90
7155;DHT22;3619;53.784;10.440;2023-09-19T11:43:39;17.90;99.90
7155;DHT22;3619;53.784;10.440;2023-09-19T11:46:07;17.80;99.90
7155;DHT22;3619;53.784;10.440;2023-09-19T11:48:35;17.70;99.90
7155;DHT22;3619;53.784;10.440;2023-09-19T11:51:17;17.70;99.90
7155;DHT22;3619;53.784;10.440;2023-09-19T11:53:54;17.60;99.90
7155;DHT22;3619;53.784;10.440;2023-09-19T11:56:22;17.60;99.90
7155;DHT22;3619;53.784;10.440;2023-09-19T11:59:07;17.50;99.90
7155;DHT22;3619;53.784;10.440;2023-09-19T12:01:34;17.50;99.90
7155;DHT22;3619;53.784;10.440;2023-09-19T12:04:02;17.60;99.90
7155;DHT22;3619;53.784;10.440;2023-09-19T12:06:32;17.80;99.90
7155;DHT22;3619;53.784;10.440;2023-09-19T12:08:59;18.00;99.90
7155;DHT22;3619;53.784;10.440;2023-09-19T12:11:28;18.00;99.90
7155;DHT22;3619;53.784;10.440;2023-09-19T12:13:58;18.00;99.90
7155;DHT22;3619;53.784;10.440;2023-09-19T12:16:27;17.90;99.90
7155;DHT22;3619;53.784;10.440;2023-09-19T12:18:56;17.90;99.90
7155;DHT22;3619;53.784;10.440;2023-09-19T12:21:26;17.90;99.90
7155;DHT22;3619;53.784;10.440;2023-09-19T12:23:59;18.00;99.90
7155;DHT22;3619;53.784;10.440;2023-09-19T12:26:26;18.00;99.90
7155;DHT22;3619;53.784;10.440;2023-09-19T12:28:55;18.00;99.90
7155;DHT22;3619;53.784;10.440;2023-09-19T12:31:23;18.00;99.90
7155;DHT22;3619;53.784;10.440;2023-09-19T12:33:56;18.00;99.90
7155;DHT22;3619;53.784;10.440;2023-09-19T12:36:24;18.20;99.90
7155;DHT22;3619;53.784;10.440;2023-09-19T12:38:55;18.30;99.90
7155;DHT22;3619;53.784;10.440;2023-09-19T12:41:25;18.20;99.90
7155;DHT22;3619;53.784;10.440;2023-09-19T12:43:52;18.30;99.90
7155;DHT22;3619;53.784;10.440;2023-09-19T12:46:20;18.30;99.90
7155;DHT22;3619;53.784;10.440;2023-09-19T12:49:17;18.50;99.90
7155;DHT22;3619;53.784;10.440;2023-09-19T12:51:45;18.40;99.90
7155;DHT22;3619;53.784;10.440;2023-09-19T12:54:12;18.50;99.90
7155;DHT22;3619;53.784;10.440;2023-09-19T12:56:41;18.50;99.90
7155;DHT22;3619;53.784;10.440;2023-09-19T12:59:11;18.60;99.90
7155;DHT22;3619;53.784;10.440;2023-09-19T13:01:41;18.50;99.90
7155;DHT22;3619;53.784;10.440;2023-09-19T13:04:19;18.50;99.90
7155;DHT22;3619;53.784;10.440;2023-09-19T13:06:52;18.60;99.90
7155;DHT22;3619;53.784;10.440;2023-09-19T13:09:22;18.80;99.90
7155;DHT22;3619;53.784;10.440;2023-09-19T13:11:50;18.90;99.90
7155;DHT22;3619;53.784;10.440;2023-09-19T13:14:20;19.00;99.90
7155;DHT22;3619;53.784;10.440;2023-09-19T13:17:00;18.90;99.90
7155;DHT22;3619;53.784;10.440;2023-09-19T13:19:44;18.80;99.90
7155;DHT22;3619;53.784;10.440;2023-09-19T13:22:37;18.60;99.90
7155;DHT22;3619;53.784;10.440;2023-09-19T13:25:06;18.60;99.90
7155;DHT22;3619;53.784;10.440;2023-09-19T13:27:33;18.40;99.90
7155;DHT22;3619;53.784;10.440;2023-09-19T13:30:00;18.40;99.90
7155;DHT22;3619;53.784;10.440;2023-09-19T13:32:27;18.40;99.90
7155;DHT22;3619;53.784;10.440;2023-09-19T13:34:55;18.60;99.90
7155;DHT22;3619;53.784;10.440;2023-09-19T13:37:29;18.80;99.90
7155;DHT22;3619;53.784;10.440;2023-09-19T13:39:59;19.10;99.90
7155;DHT22;3619;53.784;10.440;2023-09-19T13:42:26;19.10;99.90
7155;DHT22;3619;53.784;10.440;2023-09-19T13:44:58;19.10;99.90
7155;DHT22;3619;53.784;10.440;2023-09-19T13:47:25;19.20;99.90
7155;DHT22;3619;53.784;10.440;2023-09-19T13:49:56;19.20;99.90
7155;DHT22;3619;53.784;10.440;2023-09-19T13:52:23;19.30;99.90
7155;DHT22;3619;53.784;10.440;2023-09-19T13:54:54;19.40;99.90
7155;DHT22;3619;53.784;10.440;2023-09-19T13:57:22;19.20;99.90
7155;DHT22;3619;53.784;10.440;2023-09-19T13:59:49;19.10;99.90
7155;DHT22;3619;53.784;10.440;2023-09-19T14:02:17;19.10;99.90
7155;DHT22;3619;53.784;10.440;2023-09-19T14:04:44;19.30;99.90
7155;DHT22;3619;53.784;10.440;2023-09-19T14:07:12;19.30;99.90
7155;DHT22;3619;53.784;10.440;2023-09-19T14:09:40;19.40;99.90
7155;DHT22;3619;53.784;10.440;2023-09-19T14:12:08;19.40;99.90
7155;DHT22;3619;53.784;10.440;2023-09-19T14:14:35;19.40;99.90
7155;DHT22;3619;53.784;10.440;2023-09-19T14:17:02;19.60;99.90
7155;DHT22;3619;53.784;10.440;2023-09-19T14:19:29;19.80;99.90
7155;DHT22;3619;53.784;10.440;2023-09-19T14:21:56;20.00;99.90
7155;DHT22;3619;53.784;10.440;2023-09-19T14:24:25;20.00;99.90
7155;DHT22;3619;53.784;10.440;2023-09-19T14:26:51;19.90;99.90
7155;DHT22;3619;53.784;10.440;2023-09-19T14:29:18;19.80;99.90
7155;DHT22;3619;53.784;10.440;2023-09-19T14:31:45;19.70;99.90
7155;DHT22;3619;53.784;10.440;2023-09-19T14:34:15;19.70;99.90
7155;DHT22;3619;53.784;10.440;2023-09-19T14:36:42;19.80;99.90
7155;DHT22;3619;53.784;10.440;2023-09-19T14:39:09;19.70;99.90
7155;DHT22;3619;53.784;10.440;2023-09-19T14:41:37;19.70;99.90
7155;DHT22;3619;53.784;10.440;2023-09-19T14:44:04;19.70;99.90
7155;DHT22;3619;53.784;10.440;2023-09-19T14:46:33;19.60;99.90
7155;DHT22;3619;53.784;10.440;2023-09-19T14:49:02;19.40;99.90
7155;DHT22;3619;53.784;10.440;2023-09-19T14:51:30;19.20;99.90
7155;DHT22;3619;53.784;10.440;2023-09-19T14:53:57;19.00;99.90
7155;DHT22;3619;53.784;10.440;2023-09-19T14:56:24;18.90;99.90
7155;DHT22;3619;53.784;10.440;2023-09-19T14:58:53;18.80;99.90
7155;DHT22;3619;53.784;10.440;2023-09-19T15:01:20;18.80;99.90
7155;DHT22;3619;53.784;10.440;2023-09-19T15:03:47;18.80;99.90
7155;DHT22;3619;53.784;10.440;2023-09-19T15:06:15;18.80;99.90
7155;DHT22;3619;53.784;10.440;2023-09-19T15:08:46;18.80;99.90
7155;DHT22;3619;53.784;10.440;2023-09-19T15:11:17;18.90;99.90
7155;DHT22;3619;53.784;10.440;2023-09-19T15:13:47;18.80;99.90
7155;DHT22;3619;53.784;10.440;2023-09-19T15:16:18;18.70;99.90
7155;DHT22;3619;53.784;10.440;2023-09-19T15:18:45;18.60;99.90
7155;DHT22;3619;53.784;10.440;2023-09-19T15:21:14;18.60;99.90
7155;DHT22;3619;53.784;10.440;2023-09-19T15:23:43;18.60;99.90
7155;DHT22;3619;53.784;10.440;2023-09-19T15:26:12;18.50;99.90
7155;DHT22;3619;53.784;10.440;2023-09-19T15:28:42;18.50;99.90
7155;DHT22;3619;53.784;10.440;2023-09-19T15:31:11;18.40;99.90
7155;DHT22;3619;53.784;10.440;2023-09-19T15:33:40;18.40;99.90
7155;DHT22;3619;53.784;10.440;2023-09-19T15:36:08;18.40;99.90
7155;DHT22;3619;53.784;10.440;2023-09-19T15:38:55;18.40;99.90
7155;DHT22;3619;53.784;10.440;2023-09-19T15:41:24;18.40;99.90
7155;DHT22;3619;53.784;10.440;2023-09-19T15:43:51;18.40;99.90
7155;DHT22;3619;53.784;10.440;2023-09-19T15:46:19;18.40;99.90
7155;DHT22;3619;53.784;10.440;2023-09-19T15:48:47;18.30;99.90
7155;DHT22;3619;53.784;10.440;2023-09-19T15:51:15;18.30;99.90
7155;DHT22;3619;53.784;10.440;2023-09-19T15:53:44;18.30;99.90
7155;DHT22;3619;53.784;10.440;2023-09-19T15:56:11;18.30;99.90
7155;DHT22;3619;53.784;10.440;2023-09-19T15:58:39;18.30;99.90
7155;DHT22;3619;53.784;10.440;2023-09-19T16:01:07;18.20;99.90
7155;DHT22;3619;53.784;10.440;2023-09-19T16:03:35;18.20;99.90
7155;DHT22;3619;53.784;10.440;2023-09-19T16:06:08;18.10;99.90
7155;DHT22;3619;53.784;10.440;2023-09-19T16:08:35;18.10;99.90
7155;DHT22;3619;53.784;10.440;2023-09-19T16:11:03;18.00;99.90
7155;DHT22;3619;53.784;10.440;2023-09-19T16:13:30;18.10;99.90
7155;DHT22;3619;53.784;10.440;2023-09-19T16:15:58;18.10;99.90
7155;DHT22;3619;53.784;10.440;2023-09-19T16:18:25;18.10;99.90